SHT21B EGJB-EGLL
Flight info
| Callsign | SHT21B |
|---|---|
| Flight time | 0h 35m |
| Altitude | 23000 |
| Route | ORIST L982 ROXOG |
| Aircraft | A319/M-SDE3FGHIRWY/LB1 |
Departure
| Time | 2026-04-20 21:04 |
|---|---|
| Airport | Guernsey Airport (EGJB) |
Arrival
| Time | 2026-04-20 21:39 |
|---|---|
| Airport | London Heathrow Airport (EGLL) |
| Time | Latitude | Longitude | Altitude | Speed | Heading |
|---|---|---|---|---|---|
| 2026-04-20 20:43 | 49.43294 | -2.59511 | 329 ft | 0 kts | 177° |
| 2026-04-20 20:56 | 49.43293 | -2.59511 | 329 ft | 1 kts | 177° |
| 2026-04-20 20:56 | 49.43313 | -2.59512 | 330 ft | 4 kts | 180° |
| 2026-04-20 20:56 | 49.43338 | -2.59506 | 330 ft | 2 kts | 208° |
| 2026-04-20 20:56 | 49.43357 | -2.59487 | 327 ft | 4 kts | 231° |
| 2026-04-20 20:57 | 49.43367 | -2.59453 | 329 ft | 2 kts | 267° |
| 2026-04-20 20:57 | 49.43367 | -2.59451 | 329 ft | 1 kts | 267° |
| 2026-04-20 20:59 | 49.43366 | -2.59464 | 344 ft | 4 kts | 267° |
| 2026-04-20 20:59 | 49.43365 | -2.59538 | 342 ft | 10 kts | 268° |
| 2026-04-20 21:00 | 49.43362 | -2.59670 | 343 ft | 15 kts | 265° |
| 2026-04-20 21:00 | 49.43346 | -2.59820 | 341 ft | 14 kts | 267° |
| 2026-04-20 21:00 | 49.43341 | -2.60018 | 326 ft | 22 kts | 268° |
| 2026-04-20 21:00 | 49.43335 | -2.60215 | 311 ft | 12 kts | 267° |
| 2026-04-20 21:01 | 49.43330 | -2.60358 | 305 ft | 16 kts | 267° |
| 2026-04-20 21:01 | 49.43325 | -2.60547 | 304 ft | 18 kts | 270° |
| 2026-04-20 21:01 | 49.43341 | -2.60739 | 313 ft | 18 kts | 279° |
| 2026-04-20 21:01 | 49.43360 | -2.60905 | 319 ft | 14 kts | 279° |
| 2026-04-20 21:02 | 49.43362 | -2.61031 | 324 ft | 12 kts | 267° |
| 2026-04-20 21:02 | 49.43359 | -2.61168 | 325 ft | 13 kts | 266° |
| 2026-04-20 21:02 | 49.43387 | -2.61303 | 328 ft | 14 kts | 311° |
| 2026-04-20 21:02 | 49.43463 | -2.61329 | 328 ft | 13 kts | 56° |
| 2026-04-20 21:03 | 49.43465 | -2.61300 | 328 ft | 0 kts | 86° |
| 2026-04-20 21:03 | 49.43470 | -2.61176 | 314 ft | 48 kts | 86° |
| 2026-04-20 21:03 | 49.43499 | -2.60181 | 314 ft | 134 kts | 87° |
| 2026-04-20 21:03 | 49.43549 | -2.58545 | 849 ft | 151 kts | 86° |
| 2026-04-20 21:04 | 49.43569 | -2.57050 | 2079 ft | 135 kts | 86° |
| 2026-04-20 21:04 | 49.43604 | -2.55638 | 2844 ft | 135 kts | 87° |
| 2026-04-20 21:04 | 49.43647 | -2.54094 | 3240 ft | 156 kts | 88° |
| 2026-04-20 21:04 | 49.43698 | -2.52312 | 3599 ft | 179 kts | 87° |
| 2026-04-20 21:05 | 49.43948 | -2.50334 | 4015 ft | 201 kts | 65° |
| 2026-04-20 21:05 | 49.44929 | -2.48760 | 4837 ft | 212 kts | 32° |
| 2026-04-20 21:05 | 49.46364 | -2.48041 | 5754 ft | 220 kts | 18° |
| 2026-04-20 21:05 | 49.47865 | -2.47473 | 6657 ft | 225 kts | 15° |
| 2026-04-20 21:06 | 49.49458 | -2.46879 | 7185 ft | 248 kts | 15° |
| 2026-04-20 21:06 | 49.51212 | -2.46224 | 7772 ft | 268 kts | 14° |
| 2026-04-20 21:06 | 49.53049 | -2.45533 | 8637 ft | 275 kts | 14° |
| 2026-04-20 21:06 | 49.54924 | -2.44826 | 9608 ft | 279 kts | 13° |
| 2026-04-20 21:07 | 49.56824 | -2.44105 | 10538 ft | 283 kts | 12° |
| 2026-04-20 21:07 | 49.58748 | -2.43375 | 11406 ft | 287 kts | 13° |
| 2026-04-20 21:07 | 49.60705 | -2.42631 | 12262 ft | 292 kts | 12° |
| 2026-04-20 21:07 | 49.62686 | -2.41871 | 13118 ft | 296 kts | 10° |
| 2026-04-20 21:08 | 49.64697 | -2.41098 | 13969 ft | 300 kts | 11° |
| 2026-04-20 21:08 | 49.66738 | -2.40315 | 14716 ft | 304 kts | 11° |
| 2026-04-20 21:08 | 49.68774 | -2.39371 | 15489 ft | 309 kts | 19° |
| 2026-04-20 21:08 | 49.70673 | -2.37723 | 16177 ft | 321 kts | 32° |
| 2026-04-20 21:09 | 49.72367 | -2.35266 | 16342 ft | 349 kts | 46° |
| 2026-04-20 21:09 | 49.73966 | -2.32332 | 16713 ft | 363 kts | 47° |
| 2026-04-20 21:09 | 49.75600 | -2.29317 | 17343 ft | 368 kts | 46° |
| 2026-04-20 21:09 | 49.77256 | -2.26265 | 18019 ft | 372 kts | 46° |
| 2026-04-20 21:10 | 49.78938 | -2.23183 | 18667 ft | 377 kts | 46° |
| 2026-04-20 21:10 | 49.80646 | -2.20067 | 19231 ft | 382 kts | 45° |
| 2026-04-20 21:10 | 49.82381 | -2.16912 | 19796 ft | 387 kts | 45° |
| 2026-04-20 21:10 | 49.84133 | -2.13713 | 20364 ft | 392 kts | 45° |
| 2026-04-20 21:11 | 49.85909 | -2.10466 | 20924 ft | 397 kts | 45° |
| 2026-04-20 21:11 | 49.87706 | -2.07178 | 21476 ft | 402 kts | 44° |
| 2026-04-20 21:11 | 49.89525 | -2.03847 | 22019 ft | 407 kts | 44° |
| 2026-04-20 21:11 | 49.91367 | -2.00472 | 22562 ft | 412 kts | 44° |
| 2026-04-20 21:12 | 49.93227 | -1.97058 | 23074 ft | 417 kts | 44° |
| 2026-04-20 21:12 | 49.95100 | -1.93605 | 23224 ft | 417 kts | 44° |
| 2026-04-20 21:12 | 49.96928 | -1.90205 | 23254 ft | 405 kts | 44° |
| 2026-04-20 21:12 | 49.98760 | -1.86920 | 23252 ft | 398 kts | 38° |
| 2026-04-20 21:13 | 50.00834 | -1.84157 | 23252 ft | 388 kts | 28° |
| 2026-04-20 21:13 | 50.03122 | -1.82021 | 23274 ft | 380 kts | 19° |
| 2026-04-20 21:13 | 50.05482 | -1.80175 | 23259 ft | 379 kts | 19° |
| 2026-04-20 21:13 | 50.07836 | -1.78326 | 23261 ft | 379 kts | 19° |
| 2026-04-20 21:14 | 50.10189 | -1.76464 | 23261 ft | 379 kts | 19° |
| 2026-04-20 21:14 | 50.12495 | -1.74434 | 23257 ft | 385 kts | 27° |
| 2026-04-20 21:14 | 50.14620 | -1.71819 | 23265 ft | 391 kts | 32° |
| 2026-04-20 21:14 | 50.16708 | -1.69103 | 23266 ft | 391 kts | 32° |
| 2026-04-20 21:15 | 50.18796 | -1.66392 | 23294 ft | 391 kts | 32° |
| 2026-04-20 21:15 | 50.20886 | -1.63679 | 23288 ft | 391 kts | 32° |
| 2026-04-20 21:15 | 50.22977 | -1.60963 | 23287 ft | 391 kts | 32° |
| 2026-04-20 21:15 | 50.25086 | -1.58293 | 23283 ft | 387 kts | 28° |
| 2026-04-20 21:16 | 50.27364 | -1.56156 | 23281 ft | 378 kts | 18° |
| 2026-04-20 21:16 | 50.29789 | -1.54684 | 23279 ft | 370 kts | 9° |
| 2026-04-20 21:16 | 50.32253 | -1.53499 | 23277 ft | 371 kts | 9° |
| 2026-04-20 21:16 | 50.34713 | -1.52303 | 23275 ft | 371 kts | 9° |
| 2026-04-20 21:17 | 50.37176 | -1.51095 | 23274 ft | 371 kts | 10° |
| 2026-04-20 21:17 | 50.39638 | -1.49882 | 23273 ft | 371 kts | 10° |
| 2026-04-20 21:17 | 50.42098 | -1.48670 | 23298 ft | 371 kts | 10° |
| 2026-04-20 21:17 | 50.44557 | -1.47451 | 23297 ft | 370 kts | 10° |
| 2026-04-20 21:18 | 50.47013 | -1.46232 | 23293 ft | 370 kts | 10° |
| 2026-04-20 21:18 | 50.49464 | -1.45017 | 23287 ft | 370 kts | 10° |
| 2026-04-20 21:18 | 50.51918 | -1.43805 | 23284 ft | 369 kts | 9° |
| 2026-04-20 21:18 | 50.54335 | -1.42403 | 23092 ft | 373 kts | 18° |
| 2026-04-20 21:19 | 50.56628 | -1.40477 | 22819 ft | 373 kts | 21° |
| 2026-04-20 21:19 | 50.58866 | -1.38543 | 22570 ft | 371 kts | 21° |
| 2026-04-20 21:19 | 50.61122 | -1.36601 | 22296 ft | 369 kts | 21° |
| 2026-04-20 21:20 | 50.65563 | -1.32775 | 21502 ft | 360 kts | 21° |
| 2026-04-20 21:20 | 50.67754 | -1.30886 | 21025 ft | 357 kts | 21° |
| 2026-04-20 21:20 | 50.69923 | -1.29016 | 20545 ft | 354 kts | 21° |
| 2026-04-20 21:20 | 50.72077 | -1.27158 | 20073 ft | 352 kts | 21° |
| 2026-04-20 21:21 | 50.74219 | -1.25310 | 19587 ft | 350 kts | 22° |
| 2026-04-20 21:21 | 50.76343 | -1.23467 | 19118 ft | 348 kts | 23° |
| 2026-04-20 21:21 | 50.78417 | -1.21510 | 18642 ft | 347 kts | 26° |
| 2026-04-20 21:21 | 50.80445 | -1.19443 | 18136 ft | 346 kts | 27° |
| 2026-04-20 21:22 | 50.82434 | -1.17345 | 17665 ft | 342 kts | 28° |
| 2026-04-20 21:22 | 50.84400 | -1.15256 | 17191 ft | 338 kts | 28° |
| 2026-04-20 21:22 | 50.86346 | -1.13198 | 16723 ft | 335 kts | 28° |
| 2026-04-20 21:22 | 50.88282 | -1.11166 | 16267 ft | 333 kts | 28° |
| 2026-04-20 21:23 | 50.90209 | -1.09160 | 15791 ft | 330 kts | 28° |
| 2026-04-20 21:23 | 50.92126 | -1.07175 | 15325 ft | 328 kts | 29° |
| 2026-04-20 21:23 | 50.94033 | -1.05202 | 14863 ft | 326 kts | 29° |
| 2026-04-20 21:23 | 50.95930 | -1.03233 | 14397 ft | 325 kts | 30° |
| 2026-04-20 21:24 | 50.97816 | -1.01273 | 13920 ft | 324 kts | 30° |
| 2026-04-20 21:24 | 50.99692 | -0.99315 | 13433 ft | 321 kts | 31° |
| 2026-04-20 21:24 | 51.01371 | -0.96976 | 13028 ft | 322 kts | 45° |
| 2026-04-20 21:24 | 51.02852 | -0.94316 | 12719 ft | 321 kts | 45° |
| 2026-04-20 21:25 | 51.04325 | -0.91682 | 12366 ft | 318 kts | 45° |
| 2026-04-20 21:25 | 51.05791 | -0.89071 | 12030 ft | 316 kts | 45° |
| 2026-04-20 21:25 | 51.07249 | -0.86479 | 11698 ft | 313 kts | 46° |
| 2026-04-20 21:25 | 51.08695 | -0.83909 | 11359 ft | 311 kts | 46° |
| 2026-04-20 21:26 | 51.10132 | -0.81351 | 11031 ft | 309 kts | 46° |
| 2026-04-20 21:26 | 51.11555 | -0.78813 | 10708 ft | 306 kts | 46° |
| 2026-04-20 21:26 | 51.12963 | -0.76296 | 10445 ft | 301 kts | 46° |
| 2026-04-20 21:26 | 51.14322 | -0.73855 | 10320 ft | 289 kts | 45° |
| 2026-04-20 21:27 | 51.15638 | -0.71490 | 10189 ft | 281 kts | 46° |
| 2026-04-20 21:27 | 51.16940 | -0.69156 | 9916 ft | 281 kts | 46° |
| 2026-04-20 21:27 | 51.18231 | -0.66845 | 9577 ft | 278 kts | 46° |
| 2026-04-20 21:27 | 51.19512 | -0.64552 | 9216 ft | 276 kts | 47° |
| 2026-04-20 21:28 | 51.20804 | -0.62239 | 8743 ft | 278 kts | 47° |
| 2026-04-20 21:28 | 51.22054 | -0.59995 | 8485 ft | 271 kts | 48° |
| 2026-04-20 21:28 | 51.23307 | -0.57741 | 8081 ft | 272 kts | 47° |
| 2026-04-20 21:28 | 51.24553 | -0.55494 | 7730 ft | 270 kts | 48° |
| 2026-04-20 21:29 | 51.25799 | -0.53244 | 7458 ft | 264 kts | 48° |
| 2026-04-20 21:29 | 51.27020 | -0.51129 | 7316 ft | 254 kts | 41° |
| 2026-04-20 21:29 | 51.28566 | -0.49920 | 7201 ft | 247 kts | 12° |
| 2026-04-20 21:29 | 51.30245 | -0.50105 | 7072 ft | 243 kts | 342° |
| 2026-04-20 21:30 | 51.31614 | -0.51556 | 6980 ft | 242 kts | 314° |
| 2026-04-20 21:30 | 51.32408 | -0.53937 | 6985 ft | 248 kts | 291° |
| 2026-04-20 21:30 | 51.32948 | -0.56556 | 6987 ft | 248 kts | 291° |
| 2026-04-20 21:30 | 51.33478 | -0.59174 | 6977 ft | 247 kts | 290° |
| 2026-04-20 21:31 | 51.34010 | -0.61795 | 6977 ft | 247 kts | 289° |
| 2026-04-20 21:31 | 51.34536 | -0.64384 | 6978 ft | 241 kts | 290° |
| 2026-04-20 21:31 | 51.35039 | -0.66878 | 6815 ft | 234 kts | 289° |
| 2026-04-20 21:31 | 51.35526 | -0.69358 | 6542 ft | 233 kts | 289° |
| 2026-04-20 21:32 | 51.36006 | -0.71817 | 6284 ft | 230 kts | 291° |
| 2026-04-20 21:32 | 51.36482 | -0.74248 | 6050 ft | 228 kts | 290° |
| 2026-04-20 21:32 | 51.37096 | -0.76551 | 5731 ft | 224 kts | 310° |
| 2026-04-20 21:32 | 51.38247 | -0.78147 | 5367 ft | 218 kts | 338° |
| 2026-04-20 21:33 | 51.39692 | -0.78716 | 5018 ft | 214 kts | 2° |
| 2026-04-20 21:33 | 51.41182 | -0.78778 | 4673 ft | 215 kts | 2° |
| 2026-04-20 21:33 | 51.42681 | -0.78852 | 4326 ft | 216 kts | 1° |
| 2026-04-20 21:33 | 51.44182 | -0.78930 | 4014 ft | 216 kts | 1° |
| 2026-04-20 21:34 | 51.45653 | -0.78704 | 3709 ft | 211 kts | 23° |
| 2026-04-20 21:34 | 51.46853 | -0.77451 | 3405 ft | 207 kts | 49° |
| 2026-04-20 21:34 | 51.47529 | -0.75445 | 3041 ft | 207 kts | 76° |
| 2026-04-20 21:34 | 51.47613 | -0.73175 | 2808 ft | 200 kts | 88° |
| 2026-04-20 21:35 | 51.47629 | -0.70994 | 2652 ft | 191 kts | 88° |
| 2026-04-20 21:35 | 51.47644 | -0.68910 | 2558 ft | 183 kts | 88° |
| 2026-04-20 21:35 | 51.47657 | -0.66903 | 2379 ft | 177 kts | 88° |
| 2026-04-20 21:35 | 51.47668 | -0.64930 | 2161 ft | 177 kts | 88° |
| 2026-04-20 21:36 | 51.47679 | -0.62960 | 1917 ft | 176 kts | 88° |
| 2026-04-20 21:36 | 51.47689 | -0.61025 | 1714 ft | 169 kts | 88° |
| 2026-04-20 21:36 | 51.47698 | -0.59190 | 1466 ft | 160 kts | 89° |
| 2026-04-20 21:36 | 51.47707 | -0.57464 | 1241 ft | 149 kts | 87° |
| 2026-04-20 21:37 | 51.47714 | -0.55869 | 1048 ft | 134 kts | 88° |
| 2026-04-20 21:37 | 51.47721 | -0.54439 | 856 ft | 125 kts | 88° |
| 2026-04-20 21:37 | 51.47728 | -0.53069 | 690 ft | 121 kts | 88° |
| 2026-04-20 21:37 | 51.47733 | -0.51719 | 523 ft | 119 kts | 87° |
| 2026-04-20 21:38 | 51.47739 | -0.50838 | 427 ft | 119 kts | 87° |
| 2026-04-20 21:38 | 51.47744 | -0.49507 | 260 ft | 120 kts | 87° |
| 2026-04-20 21:38 | 51.47750 | -0.48185 | 113 ft | 117 kts | 86° |
| 2026-04-20 21:38 | 51.47761 | -0.46722 | 89 ft | 71 kts | 90° |
| 2026-04-20 21:39 | 51.47760 | -0.46263 | 87 ft | 21 kts | 98° |
| 2026-04-20 21:39 | 51.47652 | -0.46090 | 87 ft | 18 kts | 154° |
| 2026-04-20 21:39 | 51.47592 | -0.46216 | 86 ft | 16 kts | 269° |
| 2026-04-20 21:39 | 51.47591 | -0.46347 | 86 ft | 18 kts | 269° |
| 2026-04-20 21:40 | 51.47591 | -0.46566 | 86 ft | 21 kts | 271° |
| 2026-04-20 21:40 | 51.47592 | -0.46815 | 86 ft | 24 kts | 267° |
| 2026-04-20 21:40 | 51.47587 | -0.47092 | 86 ft | 26 kts | 269° |
| 2026-04-20 21:40 | 51.47584 | -0.47398 | 86 ft | 29 kts | 270° |
| 2026-04-20 21:41 | 51.47579 | -0.47710 | 86 ft | 25 kts | 270° |
| 2026-04-20 21:41 | 51.47577 | -0.47921 | 86 ft | 19 kts | 269° |
| 2026-04-20 21:41 | 51.47577 | -0.48142 | 86 ft | 21 kts | 270° |
| 2026-04-20 21:41 | 51.47577 | -0.48212 | 86 ft | 22 kts | 271° |
| 2026-04-20 21:42 | 51.47579 | -0.48404 | 90 ft | 12 kts | 262° |
| 2026-04-20 21:42 | 51.47518 | -0.48493 | 86 ft | 13 kts | 197° |
| 2026-04-20 21:42 | 51.47416 | -0.48486 | 86 ft | 16 kts | 176° |
| 2026-04-20 21:42 | 51.47296 | -0.48478 | 86 ft | 19 kts | 178° |
| 2026-04-20 21:43 | 51.47156 | -0.48474 | 86 ft | 21 kts | 180° |
| 2026-04-20 21:43 | 51.47038 | -0.48475 | 86 ft | 17 kts | 180° |
| 2026-04-20 21:43 | 51.46995 | -0.48498 | 89 ft | 5 kts | 244° |
| 2026-04-20 21:43 | 51.46996 | -0.48572 | 88 ft | 8 kts | 266° |
| 2026-04-20 21:44 | 51.46994 | -0.48609 | 90 ft | 0 kts | 267° |
| 2026-04-20 21:44 | 51.46994 | -0.48612 | 89 ft | 0 kts | 268° |